Date,TemperatureHighF,TemperatureAvgF,TemperatureLowF,DewpointHighF,DewpointAvgF,DewpointLowF,HumidityHigh,HumidityAvg,HumidityLow,PressureMaxIn,PressureMinIn,WindSpeedMaxMPH,WindSpeedAvgMPH,GustSpeedMaxMPH,PrecipitationSumIn
2013-1-1,21.1,15.7,4.9,16.0,9.4,1.4,86,76,59,30.33,30.17,15,4,15,0.01
2013-1-2,29.4,16.9,4.3,20.5,11.5,1.0,98,79,66,30.28,30.17,13,3,13,0.00
2013-1-3,31.3,25.4,13.9,26.1,20.4,9.5,88,81,68,30.39,30.18,20,5,20,0.00
2013-1-4,33.3,21.6,9.5,25.3,16.7,6.0,89,82,70,30.38,30.29,21,4,21,0.00
2013-1-5,37.6,29.2,18.8,35.3,26.5,16.4,99,89,79,30.30,30.02,18,3,18,0.02
2013-1-6,36.0,25.0,17.7,33.1,20.4,14.9,90,82,72,30.38,30.01,26,6,26,0.00
2013-1-7,39.9,28.7,17.1,31.4,24.0,14.7,92,83,66,30.38,30.14,22,5,22,0.00
2013-1-8,44.9,34.8,27.2,35.0,29.4,24.2,90,81,65,30.18,30.06,18,5,18,0.00
2013-1-9,48.1,38.0,27.1,35.9,31.0,24.7,92,77,55,30.52,30.09,15,4,20,0.00
2013-1-10,48.7,36.6,25.7,48.2,32.5,23.4,100,86,62,30.50,29.81,19,5,19,0.98
2013-1-11,56.1,50.7,45.5,51.6,48.7,44.7,98,93,83,29.81,29.68,26,6,26,0.35
2013-1-12,51.6,38.9,24.0,48.1,34.2,21.8,91,83,75,30.01,29.71,23,6,23,0.00
2013-1-13,24.0,18.6,13.7,21.4,13.9,9.2,91,81,75,30.34,29.94,21,6,21,0.00
2013-1-14,24.8,16.2,11.5,15.3,11.0,7.9,89,80,63,30.53,30.34,13,2,13,0.00
2013-1-15,29.1,18.8,9.9,17.7,13.3,7.1,91,80,59,30.49,30.18,10,1,10,0.00
2013-1-16,38.4,27.6,13.8,29.3,20.6,10.6,89,76,55,30.18,29.94,18,4,27,0.01
2013-1-17,35.0,28.8,21.1,30.1,21.8,15.9,91,76,53,30.47,30.12,21,5,21,0.01
2013-1-18,46.1,33.9,20.1,33.7,26.4,16.4,88,75,60,30.48,30.01,26,5,26,0.03
2013-1-19,51.8,43.0,29.7,40.0,33.8,18.6,82,70,60,30.11,29.83,32,7,32,0.01
2013-1-20,29.6,18.6,15.1,18.4,10.7,7.5,84,71,55,30.37,30.11,29,7,31,0.00
2013-1-21,15.4,9.0,4.6,10.0,0.4,-4.3,81,68,52,30.42,30.29,29,9,29,0.00
2013-1-22,14.5,8.8,1.5,4.4,-1.0,-6.0,77,64,51,30.51,30.41,15,5,15,0.00
2013-1-23,33.0,21.1,13.7,19.2,10.2,3.2,72,62,50,30.42,30.16,27,5,27,0.00
2013-1-24,22.9,16.4,7.2,11.2,5.4,-1.4,78,62,48,30.68,30.33,21,6,21,0.00
2013-1-25,37.1,27.4,19.8,21.9,16.1,9.1,76,63,49,30.33,30.06,21,5,21,0.00
2013-1-26,31.2,22.0,10.7,18.1,11.9,6.0,82,66,48,30.45,30.27,14,3,14,0.00
2013-1-27,44.1,32.3,27.0,43.3,28.0,18.2,97,84,67,30.38,29.91,26,8,26,0.17
2013-1-28,55.4,49.6,43.9,55.1,49.0,43.1,99,98,97,29.95,29.75,21,3,21,0.01
2013-1-29,64.1,55.4,41.5,62.5,54.7,40.7,100,98,91,29.76,29.39,24,4,24,1.36
2013-1-30,41.4,30.9,17.8,40.4,28.7,12.7,98,92,79,29.82,29.26,30,8,30,0.24
2013-1-31,22.2,13.7,5.5,17.8,7.9,-0.4,84,77,67,30.35,29.82,24,10,32,0.00
2013-2-1,20.9,10.7,1.6,18.4,3.9,-4.0,90,74,63,30.49,30.22,23,6,23,0.00
2013-2-2,27.9,22.0,17.3,24.1,17.4,10.9,91,82,73,30.23,30.08,20,4,20,0.00
2013-2-3,28.7,23.2,17.8,22.5,17.5,14.6,100,79,61,30.16,30.01,27,5,27,0.00
2013-2-4,35.1,27.5,18.5,27.3,22.2,15.3,92,80,70,30.02,29.82,21,5,21,0.01
2013-2-5,40.9,30.1,16.5,32.6,25.6,14.0,92,83,71,30.13,29.87,23,4,23,0.01
2013-2-6,45.0,34.1,20.4,34.4,29.0,18.7,95,82,63,30.24,30.06,21,4,21,0.00
2013-2-7,35.9,34.8,34.3,34.6,32.9,31.6,95,93,86,30.09,29.94,19,5,20,0.64
2013-2-8,34.3,29.2,26.7,32.5,25.9,23.0,93,87,83,30.37,30.05,24,7,24,0.00
2013-2-10,46.1,43.2,40.7,37.5,35.0,32.9,75,73,69,29.62,29.58,36,10,36,0.62
2013-2-11,40.5,34.0,28.3,32.9,26.1,23.5,84,73,65,30.14,29.62,31,10,31,0.00
2013-2-12,38.6,30.0,24.9,27.9,24.9,22.2,92,81,63,30.17,29.95,14,2,14,0.00
2013-2-13,45.7,33.9,24.5,34.4,28.8,22.5,93,82,62,29.95,29.77,15,2,15,0.00
2013-2-14,40.0,36.7,33.1,32.7,31.3,29.7,89,81,71,30.04,29.73,25,6,27,0.00
2013-2-15,33.7,27.6,21.1,30.5,18.2,13.8,89,69,46,30.27,30.04,21,8,21,0.00
2013-2-16,28.4,20.7,13.7,17.0,12.6,8.3,92,71,56,30.27,30.18,20,6,20,0.00
2013-2-17,37.1,25.8,13.5,24.8,17.6,9.0,85,71,55,30.24,29.92,26,6,26,0.00
2013-2-18,53.8,38.6,24.0,47.5,33.1,19.2,95,81,67,29.92,29.47,35,9,35,0.43
2013-2-19,23.9,18.6,12.9,19.2,12.2,7.1,85,76,68,30.31,29.80,32,12,32,0.00
2013-2-20,21.9,14.5,5.5,14.1,8.3,0.2,84,76,67,30.47,30.31,19,5,21,0.00
2013-2-21,28.9,22.6,13.0,25.6,19.3,10.1,95,87,79,30.41,29.90,21,6,21,0.00
2013-2-22,31.8,28.8,26.0,30.8,26.5,21.5,96,91,83,30.01,29.80,22,4,22,0.10
2013-2-23,30.4,24.2,16.3,21.8,18.8,12.6,88,80,70,30.04,29.99,13,3,13,0.06
2013-2-24,36.3,25.3,11.7,26.7,20.0,9.1,92,81,64,30.16,30.03,11,1,11,0.08
2013-2-25,43.5,33.9,20.6,34.7,28.5,18.6,94,81,64,30.15,29.86,23,5,23,0.03
2013-2-26,35.7,32.9,31.4,31.8,30.7,28.6,97,92,76,29.86,29.49,27,8,27,0.14
2013-2-27,32.3,31.2,29.6,31.3,30.2,28.7,97,96,95,29.83,29.60,16,6,16,0.22
2013-2-28,36.0,32.8,31.2,32.3,30.8,29.9,96,92,82,30.10,29.83,14,5,15,0.14
2013-3-1,31.3,27.1,24.3,30.3,23.6,20.0,96,86,80,30.26,30.09,19,6,19,0.05
2013-3-2,28.6,22.7,11.5,20.4,15.6,7.8,88,75,56,30.28,30.22,16,4,16,0.00
2013-3-3,33.6,21.8,7.3,19.9,13.8,4.5,91,73,50,30.25,30.10,8,1,8,0.01
2013-3-4,38.2,31.9,25.9,29.6,25.9,18.1,91,78,69,30.12,29.91,22,7,22,0.05
2013-3-5,34.1,31.1,27.1,31.4,28.7,24.3,96,91,83,30.12,29.86,27,7,27,0.09
2013-3-6,30.2,26.8,22.8,25.0,22.4,19.7,92,83,76,30.38,30.12,20,6,20,0.02
2013-3-7,35.4,29.2,24.4,27.5,24.2,21.2,89,82,70,30.45,30.37,13,2,13,0.05
2013-3-8,43.4,34.8,24.8,35.7,29.7,22.3,92,82,71,30.46,30.25,18,5,18,0.00
2013-3-9,48.1,41.0,36.2,42.8,37.1,32.2,95,86,79,30.25,29.77,23,8,23,0.44
2013-3-10,50.2,46.7,42.4,49.7,45.8,41.0,98,97,88,29.82,29.57,20,3,20,0.95
2013-3-11,44.6,35.0,29.9,44.1,33.2,25.7,98,93,84,29.93,29.61,24,7,24,0.04
2013-3-12,37.4,30.5,25.5,31.8,25.6,20.3,92,82,71,30.17,29.93,28,7,28,0.00
2013-3-13,35.3,28.0,22.3,21.7,19.5,16.8,84,71,48,30.40,30.16,23,8,23,0.00
2013-3-14,44.5,33.2,21.8,34.0,27.3,19.1,92,80,61,30.40,30.09,23,4,23,0.00
2013-3-15,51.9,40.6,29.5,42.6,35.5,27.7,94,83,66,30.09,29.68,11,2,13,0.00
2013-3-16,42.7,35.9,31.2,40.5,32.1,26.9,96,86,73,30.13,29.65,20,5,20,0.00
2013-3-17,37.5,32.8,29.1,29.4,26.7,23.5,86,78,68,30.19,29.92,18,6,18,0.00
2013-3-18,40.2,32.3,25.8,34.9,28.3,16.7,94,85,67,29.97,29.70,32,7,32,0.05
2013-3-19,39.2,28.6,19.9,20.1,15.9,11.2,74,60,39,30.19,29.94,28,8,29,0.00
2013-3-20,29.2,23.3,16.1,20.9,11.8,6.7,76,62,45,30.25,30.13,29,10,29,0.00
2013-3-21,34.8,23.3,11.9,18.5,12.4,7.8,85,64,42,30.16,30.04,14,2,14,0.00
2013-3-22,44.0,30.5,15.9,24.6,18.4,13.0,92,64,36,30.11,30.02,10,1,10,0.00
2013-3-23,47.6,38.1,29.8,27.7,25.2,23.1,76,60,42,30.12,29.97,16,4,16,0.00
2013-3-24,33.8,30.4,29.0,31.3,28.8,24.8,96,94,71,30.00,29.67,20,4,20,0.08
2013-3-25,35.7,31.1,27.4,29.6,27.4,25.2,96,86,73,30.17,29.80,22,4,22,0.28
2013-3-26,38.0,33.9,28.5,28.3,26.6,24.1,85,75,62,30.33,30.16,20,5,20,0.02
2013-3-27,43.4,35.7,29.1,28.8,25.9,21.5,84,69,49,30.39,30.33,12,2,12,0.00
2013-3-28,50.0,36.6,21.7,34.0,27.7,19.5,98,72,48,30.40,30.30,11,1,11,0.00
2013-3-29,57.7,44.0,31.5,38.2,32.8,28.6,95,68,38,30.32,30.22,10,1,10,0.00
2013-3-30,56.9,45.9,33.4,45.6,38.9,30.1,90,77,59,30.23,29.89,22,4,22,0.00
2013-3-31,59.6,49.5,38.5,46.2,39.5,28.3,94,71,39,29.96,29.80,19,8,29,0.00
2013-4-1,42.6,35.3,27.8,28.0,21.7,17.2,83,59,37,30.26,29.96,25,7,25,0.00
2013-4-2,46.2,34.4,23.5,23.4,19.3,14.0,82,57,28,30.36,30.26,22,4,22,0.00
2013-4-3,50.7,36.4,21.7,24.6,20.4,16.6,86,56,28,30.47,30.31,14,3,14,0.00
2013-4-4,60.4,43.8,26.6,30.0,25.5,21.2,85,53,25,30.31,30.01,13,2,13,0.00
2013-4-5,58.7,47.7,34.4,34.5,30.4,25.3,84,54,29,30.21,30.05,15,4,15,0.00
2013-4-6,71.8,56.7,43.2,51.5,37.8,25.4,72,50,31,30.06,29.63,31,8,33,0.00
2013-4-7,69.2,55.8,39.2,46.8,43.2,36.8,93,65,41,29.94,29.72,18,3,23,0.00
2013-4-8,73.3,62.9,55.5,59.7,55.7,43.6,96,78,58,29.85,29.57,20,5,30,0.99
2013-4-9,78.3,67.8,58.9,63.6,59.7,53.5,90,76,56,29.86,29.76,24,4,24,0.00
2013-4-10,58.6,45.8,40.9,53.4,44.1,39.3,97,94,82,29.92,29.67,25,7,25,1.92
2013-4-11,49.2,44.6,37.5,46.7,41.6,31.6,97,89,78,29.68,29.61,23,5,23,0.07
2013-4-12,44.1,39.3,36.8,36.3,34.1,31.5,92,82,69,29.94,29.63,23,6,23,0.02
2013-4-13,52.5,43.2,35.1,39.0,32.3,25.0,81,66,49,30.02,29.93,22,5,22,0.00
2013-4-14,75.4,60.2,45.8,55.0,46.7,36.7,83,63,41,29.95,29.58,36,9,36,0.00
2013-4-15,63.9,53.6,44.2,55.4,49.2,40.7,97,85,68,30.00,29.64,20,4,26,0.47
2013-4-16,52.1,46.3,40.1,43.2,39.3,34.9,93,77,61,30.21,29.96,16,4,16,0.16
2013-4-17,51.5,46.7,44.0,49.8,41.9,35.8,97,84,69,30.22,29.87,24,8,24,0.70
2013-4-22,68.1,62.7,55.3,49.8,43.9,39.1,80,51,37,30.22,29.99,23,6,23,0.01
2013-4-23,55.7,44.7,37.8,50.6,42.6,36.3,95,93,82,30.03,29.91,19,5,19,0.63
2013-4-24,51.2,41.5,35.9,36.4,33.7,30.4,95,75,47,30.18,29.99,20,5,20,0.04
2013-4-25,56.4,46.4,39.4,38.3,33.2,27.0,84,62,39,30.32,30.14,27,5,27,0.00
2013-4-26,64.6,52.6,42.2,49.8,42.7,34.8,88,70,55,30.32,30.24,20,6,20,0.00
2013-4-27,62.0,53.0,42.3,52.2,47.4,40.6,96,83,57,30.29,29.97,15,3,15,0.03
2013-4-28,69.0,57.5,51.6,55.2,52.1,49.6,97,84,58,29.97,29.83,11,2,11,0.00
2013-4-29,76.8,62.4,46.6,62.0,54.8,45.5,100,78,56,29.90,29.70,26,6,26,0.00
2013-4-30,86.3,72.5,59.9,64.8,59.3,53.8,94,67,34,29.90,29.71,15,6,22,0.00
2013-5-1,84.0,72.2,58.7,61.1,56.4,51.2,88,60,35,30.08,29.90,20,4,20,0.00
2013-5-2,68.5,58.2,44.7,58.2,50.8,41.8,93,77,58,30.15,30.05,23,5,23,0.21
2013-5-3,59.6,48.8,43.7,58.9,47.8,42.2,98,96,93,30.10,29.81,21,5,21,1.48
2013-5-4,63.3,57.8,53.0,58.2,55.7,52.2,97,93,76,30.02,29.84,19,4,21,0.37
2013-5-5,70.7,56.9,51.6,59.6,53.7,50.7,98,90,60,30.01,29.93,20,2,20,0.01
2013-5-6,75.6,64.1,53.1,55.1,50.6,41.8,93,65,33,30.02,29.93,20,3,20,0.00
2013-5-7,79.9,64.2,47.0,54.2,46.7,38.0,93,60,24,30.03,29.95,9,1,9,0.00
2013-5-8,81.1,66.3,48.3,58.5,51.8,44.5,95,64,29,30.02,29.94,11,0,11,0.00
2013-5-9,69.5,62.8,60.1,63.0,60.4,57.5,97,92,73,29.95,29.79,22,2,22,0.36
2013-5-10,61.7,53.9,49.2,60.8,51.6,47.4,98,92,86,29.99,29.79,18,3,18,0.00
2013-5-11,59.4,51.9,43.2,52.0,39.7,29.2,98,67,35,30.12,29.93,34,5,34,0.00
2013-5-12,57.4,47.4,38.0,38.2,31.2,24.8,87,56,35,30.20,30.12,21,4,21,0.00
2013-5-13,71.5,54.7,35.5,46.9,38.5,33.0,94,59,28,30.20,29.99,14,1,14,0.00
2013-5-14,85.3,63.2,53.1,65.7,51.7,43.4,80,67,49,29.99,29.77,15,4,15,0.00
2013-5-19,80.9,79.7,78.5,71.8,70.6,67.3,77,74,68,29.72,29.67,24,6,24,0.00
2013-5-20,81.5,71.8,62.0,68.5,64.0,59.7,96,78,53,29.81,29.63,31,4,31,0.89
2013-5-21,81.3,70.4,61.9,67.7,63.3,60.5,96,80,54,29.70,29.62,21,3,23,0.00
2013-5-22,71.8,64.2,59.0,61.7,58.2,55.3,96,82,62,29.79,29.61,18,1,18,0.07
2013-5-23,62.5,57.5,49.0,56.5,53.2,47.2,96,86,67,30.25,29.79,22,3,22,0.03
2013-5-24,67.5,53.7,41.3,50.0,43.7,38.4,96,72,39,30.44,30.25,11,1,11,0.00
2013-5-25,54.4,51.0,47.2,50.6,45.3,37.8,95,82,60,30.41,30.22,14,2,14,0.47
2013-5-26,64.6,56.5,50.6,60.5,54.1,48.7,97,92,82,30.26,30.02,21,3,21,1.22
2013-5-27,68.5,63.1,57.7,66.7,62.0,56.6,98,96,91,30.03,29.77,16,2,16,0.86
2013-5-28,77.2,69.2,64.6,71.7,66.5,62.3,98,91,80,29.89,29.69,23,4,23,0.41
2013-5-29,84.7,73.1,61.1,72.9,66.7,60.2,98,82,61,29.95,29.78,18,3,18,0.78
2013-5-30,82.5,72.1,62.2,72.4,66.8,60.4,97,84,67,29.85,29.70,28,6,28,0.96
2013-5-31,73.8,67.2,62.4,71.1,65.6,61.5,98,95,87,29.85,29.66,15,3,19,0.21
2013-6-1,73.8,66.7,61.6,70.1,63.3,58.8,97,89,68,29.80,29.66,21,2,21,0.21
2013-6-2,62.0,59.3,54.6,59.4,55.1,51.8,94,86,76,30.03,29.78,18,2,18,0.00
2013-6-3,68.3,58.0,46.9,54.6,49.8,44.9,97,76,52,30.13,30.01,11,1,11,0.00
2013-6-4,72.7,62.0,49.2,58.6,53.3,47.8,96,75,53,30.12,30.01,13,2,13,0.00
2013-6-5,77.4,66.5,54.6,64.3,59.0,52.9,95,78,53,30.04,29.86,10,1,10,0.00
2013-6-6,70.9,62.8,57.3,62.8,58.2,54.2,95,85,68,29.89,29.83,11,1,11,0.04
2013-6-7,72.1,62.5,53.1,58.1,54.7,50.8,94,77,57,29.92,29.88,15,2,15,0.00
2013-6-8,77.0,64.4,50.3,62.2,55.2,48.9,96,75,47,29.97,29.90,12,1,12,0.00
2013-6-9,80.2,66.4,59.0,68.2,61.3,56.4,96,84,60,29.93,29.75,11,2,18,0.72
2013-6-10,78.1,66.8,57.9,66.0,61.9,57.1,98,85,62,29.87,29.72,12,1,12,0.00
2013-6-11,86.8,72.1,58.7,76.0,66.8,57.6,97,84,64,29.92,29.77,16,1,16,0.00
2013-6-12,91.3,80.6,68.9,79.0,72.7,67.3,97,78,60,29.85,29.57,22,2,22,0.01
2013-6-13,80.8,72.4,62.2,70.3,60.8,54.8,95,69,42,29.97,29.66,22,3,22,0.01
2013-6-14,78.7,67.9,55.6,64.8,59.7,53.6,95,76,52,30.11,29.94,8,0,8,0.00
2013-6-15,75.6,69.7,64.5,71.5,66.2,60.5,97,89,82,30.05,29.86,27,2,27,0.81
2013-6-16,81.5,74.8,66.6,72.6,69.7,65.1,96,84,71,29.94,29.88,12,0,12,0.00
2013-6-17,83.5,72.4,62.3,71.0,65.6,61.4,98,81,55,29.94,29.86,9,0,9,0.00
2013-6-18,79.8,71.3,63.6,68.4,63.5,56.9,97,78,61,30.01,29.85,11,1,11,0.00
2013-6-19,83.2,68.8,54.0,66.1,59.4,51.4,94,74,44,30.09,30.00,7,0,7,0.00
2013-6-20,89.0,75.7,60.4,71.1,65.3,58.8,96,73,44,30.10,30.00,13,1,13,0.00
2013-6-21,87.2,75.1,67.7,76.8,69.1,64.7,96,82,62,30.07,29.92,27,4,27,1.12
2013-6-22,85.8,76.0,68.1,78.4,71.6,65.7,96,87,73,30.04,29.93,21,2,21,0.00
2013-6-23,87.4,73.2,67.6,77.0,68.8,65.2,95,87,62,30.00,29.87,9,2,21,0.01
2013-6-24,86.3,71.8,66.3,77.7,68.5,64.9,96,90,65,30.09,29.83,23,2,24,0.26
2013-6-25,84.8,75.4,68.4,77.9,72.2,67.2,98,90,76,29.90,29.77,23,2,23,0.80
2013-6-26,84.9,74.8,66.2,77.8,71.8,65.1,98,91,76,29.82,29.68,16,2,16,0.29
2013-6-27,86.7,77.5,71.7,74.5,71.3,67.3,98,82,60,29.83,29.73,13,1,13,0.00
2013-6-28,82.2,74.6,66.4,67.3,63.7,59.0,92,70,48,29.78,29.64,23,3,23,0.00
2013-6-29,72.2,67.3,63.5,66.6,63.1,60.3,94,87,76,29.76,29.60,18,2,18,0.14
2013-6-30,78.1,67.7,60.3,64.7,61.2,55.3,94,81,57,29.97,29.76,14,3,19,0.01
2013-7-1,77.2,67.2,57.0,59.1,54.8,51.5,86,66,46,30.03,29.96,20,3,20,0.00
2013-7-2,74.4,65.4,56.0,59.5,55.9,48.3,91,73,44,30.05,30.00,20,1,20,0.00
2013-7-3,79.5,65.6,56.3,63.1,57.4,53.9,95,77,44,30.06,30.00,8,0,8,0.00
2013-7-4,85.6,72.4,60.3,69.9,63.4,58.2,96,76,48,30.07,29.98,11,1,11,0.00
2013-7-5,85.2,73.7,63.6,71.2,64.6,60.7,95,75,49,30.05,29.97,16,1,16,0.00
2013-7-6,85.9,74.0,63.0,72.7,67.3,61.5,97,81,55,30.03,29.94,11,1,11,0.00
2013-7-7,89.2,77.7,67.7,76.6,70.6,64.5,93,80,56,29.99,29.92,14,1,14,0.00
2013-7-8,84.5,77.0,71.2,77.0,73.1,69.8,97,88,74,30.02,29.94,15,1,18,0.61
2013-7-9,87.0,80.0,74.2,80.1,76.5,73.0,97,89,74,29.98,29.84,12,0,12,0.02
2013-7-10,86.3,78.1,65.0,75.3,70.3,62.4,97,78,58,29.99,29.81,11,2,18,0.00
2013-7-11,80.7,70.1,60.6,66.3,62.0,57.8,97,78,48,30.07,29.99,11,0,11,0.00
2013-7-12,84.0,69.5,55.3,66.9,59.5,53.6,96,74,40,30.13,30.04,7,0,8,0.00
2013-7-13,83.3,70.9,57.9,68.7,62.6,56.5,97,77,52,30.12,30.04,10,1,10,0.00
2013-7-14,89.1,76.0,64.0,73.4,68.2,62.5,96,79,54,30.15,30.07,11,1,11,0.00
2013-7-15,89.5,79.3,70.2,78.7,73.6,68.7,96,84,64,30.22,30.14,8,1,8,0.00
2013-7-16,90.8,80.4,70.9,79.0,74.3,70.0,98,83,60,30.27,30.20,6,1,9,0.00
2013-7-17,91.5,80.5,70.6,80.3,74.6,69.4,98,83,58,30.29,30.15,6,0,6,0.00
2013-7-18,93.3,82.1,74.0,79.7,75.1,72.5,95,81,59,30.17,29.95,11,0,11,0.00
2013-7-19,92.7,87.9,86.3,77.8,75.8,71.6,74,68,52,29.95,29.77,16,1,16,0.00
2013-7-20,86.3,84.5,80.8,74.9,71.4,64.3,69,65,50,29.89,29.79,11,1,11,0.00
2013-7-21,80.8,80.8,80.8,69.3,69.3,69.3,68,68,68,29.90,29.82,10,0,10,0.00
2013-7-22,87.7,65.5,0.0,75.6,56.9,0.0,81,55,62,29.87,29.72,19,1,19,0.00
2013-7-25,82.5,74.5,65.0,64.8,61.9,57.8,90,66,50,30.09,30.01,8,0,8,0.00
2013-7-26,74.6,65.8,59.0,70.5,63.4,57.6,97,92,82,30.03,29.90,12,1,12,0.86
2013-7-27,65.7,60.1,53.3,58.4,53.8,48.9,98,81,57,29.97,29.92,16,2,16,0.00
2013-7-28,71.0,60.9,51.1,57.9,53.2,47.9,93,77,59,30.05,29.93,13,2,14,0.00
2013-7-29,77.8,64.4,50.6,63.3,56.9,49.1,97,79,48,30.15,30.05,9,0,10,0.00
2013-7-30,68.8,65.8,62.5,67.9,63.9,58.0,98,94,76,30.14,30.01,13,2,13,0.94
2013-7-31,74.1,69.1,65.4,69.1,67.3,64.5,99,94,82,30.02,29.96,7,1,11,0.00
2013-8-1,81.4,70.7,61.5,67.4,64.1,60.6,100,82,53,30.04,29.93,11,0,11,0.00
2013-8-2,84.4,74.2,65.2,73.7,68.6,63.4,96,84,61,29.94,29.85,10,1,14,0.12
2013-8-3,79.4,70.2,61.0,69.1,63.3,59.2,97,81,52,30.11,29.93,10,1,10,0.03
2013-8-4,81.2,68.1,56.6,65.9,59.7,55.5,97,77,46,30.17,30.07,7,0,7,0.00
2013-8-5,76.0,67.1,58.8,69.2,63.6,57.3,96,89,76,30.08,29.85,19,1,19,0.16
2013-8-6,86.3,74.6,65.9,77.0,71.1,64.9,99,90,69,29.89,29.78,9,1,9,0.00
2013-8-7,84.7,76.4,68.9,77.5,72.4,66.1,98,88,64,29.92,29.77,11,1,11,0.00
2013-8-8,79.3,71.3,63.9,69.9,66.5,62.9,97,86,68,29.97,29.90,9,0,9,0.00
2013-8-9,80.9,70.9,59.3,69.8,64.9,58.2,97,83,59,30.04,29.96,8,0,8,0.00
2013-8-10,78.7,69.7,59.9,67.9,61.6,57.9,96,77,52,30.13,30.04,12,1,12,0.00
2013-8-11,83.7,70.1,56.6,70.3,62.8,55.5,100,80,53,30.13,30.02,10,0,10,0.00
2013-8-12,80.0,71.8,64.5,73.3,67.7,62.7,95,87,72,30.04,29.88,6,0,9,0.04
2013-8-13,73.0,64.8,53.3,63.4,57.8,51.2,95,80,50,30.14,29.93,13,1,13,0.00
2013-8-14,73.6,60.7,49.2,59.3,53.4,47.8,97,79,50,30.22,30.13,10,0,10,0.00
2013-8-15,73.5,63.1,53.7,61.9,57.0,51.7,95,82,54,30.18,30.09,8,0,8,0.00
2013-8-16,79.3,66.3,54.8,62.6,58.2,53.5,97,78,46,30.17,30.12,10,0,10,0.00
2013-8-17,79.7,66.2,53.3,63.7,58.2,52.2,98,78,48,30.21,30.13,12,1,12,0.00
2013-8-18,82.5,67.5,53.5,65.8,59.3,52.3,97,78,45,30.19,30.08,10,0,10,0.00
2013-8-19,84.3,70.6,57.8,70.4,64.0,56.4,97,81,55,30.11,30.01,10,0,10,0.00
2013-8-20,85.8,73.2,62.8,72.4,66.5,61.8,97,81,56,30.09,30.00,12,1,12,0.00
2013-8-21,88.3,75.7,64.8,73.9,68.3,63.3,96,80,55,30.07,29.97,11,1,11,0.00
2013-8-22,82.0,74.0,68.7,73.5,69.5,66.3,95,86,73,30.07,29.99,14,1,14,0.00
2013-8-23,84.5,72.2,61.9,70.6,65.9,60.8,98,82,55,30.13,30.06,10,1,10,0.00
2013-8-24,86.6,73.6,59.8,72.0,66.2,58.3,96,79,58,30.20,30.11,13,1,13,0.00
2013-8-25,89.1,76.1,64.9,72.7,67.7,62.8,94,77,52,30.23,30.13,13,1,13,0.00
2013-8-26,92.3,77.7,64.8,77.0,70.7,62.8,95,81,56,30.15,29.99,9,1,9,0.00
2013-8-27,93.4,80.7,70.9,77.0,71.8,64.7,96,76,52,30.00,29.87,15,1,15,0.00
2013-8-28,92.7,82.4,74.0,78.5,72.0,64.8,93,72,57,29.97,29.88,12,1,12,0.00
2013-8-29,86.6,77.5,70.1,76.3,72.6,68.6,96,85,70,30.03,29.93,7,0,7,0.00
2013-8-30,96.9,81.8,70.3,79.3,73.5,65.8,96,78,46,29.94,29.75,13,1,13,0.00
2013-8-31,90.3,79.1,70.7,78.6,71.2,64.1,95,77,64,29.78,29.71,9,1,11,0.00
2013-9-1,88.3,75.5,65.3,74.6,68.3,62.4,99,80,51,29.83,29.72,12,1,12,0.00
2013-9-2,79.7,68.9,59.7,66.6,60.6,55.9,93,77,51,29.98,29.82,14,2,14,0.00
2013-9-3,78.0,64.5,53.8,62.9,57.7,52.3,96,80,54,30.09,29.98,9,0,9,0.00
2013-9-4,83.2,67.2,51.8,63.6,57.4,50.4,97,75,40,30.14,30.04,8,0,8,0.00
2013-9-5,87.8,73.1,59.1,70.6,63.7,57.1,95,75,47,30.18,30.11,7,0,7,0.00
2013-9-6,87.0,72.0,58.0,68.0,62.9,55.7,94,75,50,30.16,29.99,13,1,13,0.00
2013-9-7,87.8,75.0,62.6,72.8,66.8,60.8,95,77,51,30.00,29.86,16,1,16,0.00
2013-9-8,85.9,76.7,69.3,73.3,70.6,68.0,97,82,63,29.95,29.85,18,1,18,0.03
2013-9-9,94.5,80.8,70.9,77.7,72.6,69.1,97,78,50,29.89,29.81,9,2,13,0.00
2013-9-10,95.0,80.4,67.6,72.4,68.9,64.2,89,70,44,30.01,29.89,16,1,16,0.00
2013-9-11,91.0,79.0,70.7,72.2,68.3,65.1,86,71,48,30.05,29.98,14,1,14,0.00
2013-9-12,80.7,72.1,59.0,70.1,60.1,48.4,97,70,35,30.07,29.98,22,2,22,0.20
2013-9-13,70.3,58.8,47.6,52.4,46.5,39.1,93,68,34,30.18,30.06,11,1,15,0.00
2013-9-14,71.3,56.8,43.0,51.3,46.0,41.4,96,71,35,30.19,30.01,7,1,12,0.00
2013-9-15,64.3,58.8,50.6,61.5,54.8,47.2,96,87,72,30.16,29.97,14,2,14,0.24
2013-9-16,69.5,60.1,53.5,57.2,53.7,48.4,96,81,57,30.32,30.15,15,2,15,0.00
2013-9-17,73.2,61.4,49.2,61.5,54.9,47.5,96,80,59,30.29,30.07,12,1,12,0.00
2013-9-18,83.9,72.2,60.9,71.8,65.2,56.4,95,80,63,30.07,29.87,19,3,19,0.09
2013-9-19,88.4,77.7,67.1,74.0,70.0,64.5,96,79,59,29.91,29.75,15,2,24,1.27
2013-9-20,69.6,65.1,55.8,66.6,60.4,51.1,98,86,56,29.89,29.78,19,2,19,0.15
2013-9-21,68.1,57.8,49.8,54.8,50.6,48.0,94,79,50,29.94,29.86,16,2,16,0.00
2013-9-22,69.8,56.6,45.3,54.5,49.0,44.0,97,79,45,30.05,29.94,8,0,8,0.00
2013-9-23,73.4,59.3,46.6,56.3,50.1,44.4,93,74,44,30.07,29.95,12,2,12,0.00
2013-9-24,74.9,62.2,48.4,60.9,53.7,46.8,95,75,53,29.98,29.84,10,1,10,0.00
2013-9-25,76.9,64.7,53.5,62.8,56.0,50.4,90,75,55,29.91,29.85,10,1,10,0.00
2013-9-26,80.5,66.1,53.3,64.5,57.5,50.8,94,76,50,30.02,29.91,13,1,13,0.00
2013-9-27,81.2,65.9,52.8,61.4,54.6,50.3,93,70,37,30.10,29.99,14,2,14,0.00
2013-9-28,81.2,67.3,57.3,67.8,60.6,53.6,96,80,57,30.01,29.88,25,3,25,0.48
2013-9-29,69.2,57.7,49.2,57.0,50.3,44.3,100,80,41,30.07,29.98,12,1,12,0.00
2013-9-30,74.3,59.7,45.7,58.2,52.1,44.5,97,79,48,29.99,29.86,12,1,12,0.00
2013-10-1,77.4,67.5,59.0,67.9,63.9,57.6,98,89,70,29.97,29.88,18,2,18,0.00
2013-10-2,79.3,69.2,62.2,69.2,65.5,61.6,99,89,65,30.04,29.93,11,1,11,0.00
2013-10-3,79.5,69.2,64.0,72.9,67.1,62.8,98,93,74,29.93,29.80,20,2,20,1.45
2013-10-4,83.2,72.7,64.8,73.6,68.6,63.0,98,88,65,29.93,29.85,14,2,14,0.00
2013-10-5,74.8,68.4,56.5,71.5,65.8,52.0,98,92,81,29.89,29.77,19,2,19,0.02
2013-10-6,56.4,49.3,44.7,52.0,44.4,40.4,95,84,63,29.83,29.75,15,2,18,0.05
2013-10-7,68.0,54.9,45.2,52.5,47.8,43.9,97,79,47,30.09,29.82,13,1,13,0.00
2013-10-8,74.0,58.9,45.8,56.1,49.9,44.2,96,75,44,30.18,30.09,13,1,13,0.00
2013-10-9,71.0,56.7,44.6,54.1,48.6,43.3,97,77,44,30.20,30.09,11,1,11,0.00
2013-10-10,74.4,59.9,48.0,60.2,53.8,46.2,95,82,57,30.15,30.00,15,1,15,0.00
2013-10-11,77.0,65.5,54.8,62.3,56.9,53.1,95,76,50,30.03,29.87,23,3,23,0.00
2013-10-12,70.4,62.2,49.9,61.7,52.7,41.2,94,73,39,30.20,29.90,13,2,13,0.00
2013-10-13,64.8,50.9,40.7,44.9,39.6,32.1,93,70,31,30.40,30.20,12,1,12,0.00
2013-10-14,63.9,50.6,37.1,47.6,41.3,35.4,96,73,41,30.39,30.06,16,2,16,0.00
2013-10-15,69.5,59.1,47.4,62.5,52.1,41.8,97,78,60,30.06,29.78,20,3,20,0.08
2013-10-16,52.3,49.7,43.0,45.2,43.5,40.0,90,79,76,29.99,29.90,13,2,13,0.00
2013-10-17,59.8,49.8,43.6,48.7,43.3,38.3,96,80,46,29.98,29.85,16,1,16,0.17
2013-10-18,52.4,46.3,42.4,42.2,40.0,37.7,93,79,58,30.02,29.87,16,2,16,0.00
2013-10-19,53.9,46.0,36.8,40.2,38.5,35.2,95,77,53,29.98,29.85,21,2,21,0.01
2013-10-20,67.3,52.3,38.2,48.4,43.0,35.7,93,72,45,29.88,29.73,22,2,22,0.00
2013-10-21,56.0,43.9,30.6,48.4,34.3,25.2,88,70,44,30.03,29.84,22,3,22,0.00
2013-10-22,42.2,36.3,29.9,40.9,34.4,27.3,96,93,87,30.03,29.84,16,2,16,0.43
2013-10-23,43.7,38.1,31.4,36.2,32.0,28.2,96,80,55,30.10,29.99,16,2,16,0.00
2013-10-24,41.1,36.4,30.3,35.5,26.9,22.7,92,69,52,30.38,30.09,19,3,19,0.00
2013-10-25,52.2,38.5,26.0,35.5,28.8,23.9,93,71,39,30.46,30.13,18,1,18,0.00
2013-10-26,54.3,44.9,32.8,38.3,32.6,29.4,92,63,40,30.14,29.96,24,4,24,0.00
2013-10-27,55.4,40.6,28.2,36.4,31.6,25.9,93,73,44,30.12,29.99,16,1,16,0.00
2013-10-28,60.5,46.0,33.7,41.8,35.9,30.0,89,70,43,30.31,30.07,9,1,9,0.00
2013-10-29,55.8,47.6,39.2,51.4,42.8,37.5,96,84,62,30.31,30.10,11,2,11,0.01
2013-10-30,63.8,56.9,52.4,63.5,56.4,51.3,100,98,96,30.10,29.76,21,2,21,1.18
2013-10-31,63.4,56.1,44.6,63.1,55.4,42.9,99,98,92,29.75,29.29,10,3,20,1.34
2013-11-1,51.2,45.9,40.6,45.6,43.3,39.2,96,91,75,29.79,29.50,13,2,15,0.02
2013-11-2,50.0,42.1,32.0,40.5,36.9,30.4,99,83,57,30.17,29.79,16,2,19,0.00
2013-11-3,52.6,41.3,28.5,40.9,34.1,27.2,100,77,52,30.31,30.17,20,3,20,0.00
2013-11-4,57.3,50.6,44.6,46.2,42.1,37.1,80,73,60,30.20,30.07,23,5,23,0.00
2013-11-5,54.4,52.5,51.0,52.8,50.1,45.9,96,92,79,30.24,29.92,21,4,21,0.23
2013-11-6,56.6,45.5,34.5,56.0,42.8,29.6,98,90,80,30.24,29.82,24,5,24,0.61
2013-11-7,47.2,36.7,29.6,38.7,31.7,27.0,94,82,66,30.33,30.24,20,2,20,0.00
2013-11-8,48.6,40.8,27.5,37.8,32.9,25.5,95,75,57,30.35,29.97,22,4,25,0.00
2013-11-9,60.4,51.5,42.9,42.1,39.1,35.7,79,64,45,30.21,29.93,28,5,28,0.00
2013-11-10,47.9,39.3,32.8,35.7,31.9,28.2,89,75,54,30.42,30.21,12,2,12,0.00
2013-11-11,51.0,39.4,24.0,39.5,33.4,19.8,95,80,62,30.57,30.13,19,4,19,0.02
2013-11-12,30.4,23.5,17.8,22.1,18.3,14.3,87,80,68,30.79,30.57,15,3,15,0.00
2013-11-13,41.1,29.0,17.0,23.6,19.6,14.1,90,70,42,30.69,30.23,20,2,20,0.01
2013-11-14,51.4,38.9,28.4,30.1,25.4,21.4,76,60,41,30.23,29.99,18,3,18,0.00
2013-11-15,49.0,40.6,32.2,40.1,33.7,26.9,89,77,62,30.01,29.90,15,3,15,0.00
2013-11-16,58.3,52.8,39.0,56.0,50.3,36.3,93,91,85,29.91,29.55,29,8,29,0.01
2013-11-17,68.3,55.7,44.9,64.5,51.5,39.6,96,86,75,29.87,29.19,37,8,37,0.00
2013-11-18,45.8,40.5,32.1,39.8,33.2,27.6,87,76,57,30.30,29.87,27,7,27,0.00
2013-11-19,44.9,34.7,23.4,30.9,27.7,21.4,94,77,54,30.38,30.24,13,3,13,0.00
2013-11-20,41.2,37.0,32.6,38.5,33.0,28.6,94,86,74,30.25,30.04,22,6,22,0.02
2013-11-21,48.1,44.6,41.2,46.1,42.5,38.5,97,92,88,30.25,30.08,14,2,14,0.00
2013-11-22,41.3,34.7,24.9,39.7,31.9,22.8,95,90,78,30.55,30.24,18,5,18,0.00
2013-11-23,24.8,21.2,13.7,22.8,14.1,8.4,92,74,56,30.79,30.53,24,6,24,0.00
2013-11-24,28.2,18.3,9.2,15.5,9.5,3.2,88,70,35,30.81,30.43,12,2,12,0.00
2013-11-25,34.4,29.0,22.9,26.4,20.7,14.6,84,71,60,30.43,30.14,22,4,22,0.00
2013-11-26,34.8,27.0,17.6,27.6,19.4,8.9,86,73,54,30.27,30.09,25,6,25,0.00
2013-11-27,27.4,19.1,12.6,14.3,10.2,6.5,83,69,50,30.36,30.27,13,4,20,0.00
2013-11-28,37.2,26.6,17.5,22.2,17.4,12.4,92,69,53,30.54,30.20,19,4,19,0.00
2013-11-29,36.7,25.9,12.6,25.3,18.8,10.0,93,75,56,30.65,30.39,15,3,15,0.00
2013-11-30,50.8,36.3,27.7,36.6,29.7,24.3,92,78,55,30.39,30.08,12,3,18,0.00
2013-12-1,46.7,37.9,29.3,34.5,31.4,27.1,94,78,59,30.14,29.97,10,1,10,0.00
2013-12-2,45.7,38.7,32.4,38.5,34.5,29.6,94,85,72,29.97,29.65,15,3,15,0.00
2013-12-3,49.8,44.3,38.1,49.3,43.6,37.1,100,97,94,29.69,29.60,12,4,18,0.00
2013-12-4,53.5,46.6,32.3,53.2,45.8,29.0,99,97,88,29.82,29.49,23,4,23,0.00
2013-12-5,32.1,22.6,18.8,28.9,16.0,11.5,89,76,67,30.34,29.81,20,8,24,0.00
2013-12-6,19.5,15.4,10.0,12.2,8.2,5.3,81,73,61,30.65,30.32,18,6,18,0.00
2013-12-7,19.5,11.7,5.4,7.1,4.7,1.9,92,74,52,30.78,30.59,13,3,13,0.00
2013-12-8,23.7,20.2,11.5,21.9,16.5,6.7,93,85,74,30.60,30.03,15,4,15,0.00
2013-12-9,23.4,14.5,-0.1,21.2,9.2,-4.2,91,79,67,30.33,30.05,24,5,24,0.00
2013-12-10,24.9,14.7,-1.4,13.7,7.1,-5.1,86,72,53,30.35,30.13,25,4,25,0.00
2013-12-11,21.3,14.3,2.4,16.6,6.6,-4.8,87,71,50,30.68,30.28,22,5,22,0.00
2013-12-12,30.5,14.7,-0.8,19.0,8.1,-5.0,85,75,59,30.65,30.26,19,2,19,0.00
2013-12-13,37.1,27.1,16.4,29.7,22.3,12.2,96,83,64,30.26,30.04,11,2,11,0.00
2013-12-14,31.4,28.0,18.6,30.4,26.2,15.2,96,93,86,30.11,29.94,18,2,18,0.00
2013-12-15,18.4,15.2,11.6,15.0,10.8,7.7,95,83,72,30.17,30.09,15,3,15,0.00
2013-12-16,21.6,17.8,11.9,19.9,15.0,9.0,94,89,83,30.17,30.05,12,2,12,0.00
2013-12-17,36.2,26.4,18.2,29.5,21.6,15.2,100,83,66,30.24,30.09,22,5,22,0.01
2013-12-18,36.7,26.9,12.1,30.6,20.2,7.6,86,76,57,30.24,29.88,23,5,23,0.00
2013-12-19,43.1,38.6,34.6,39.8,35.5,30.5,96,89,81,29.91,29.75,13,4,13,0.00
2013-12-20,43.4,34.9,28.8,42.9,34.1,28.1,98,97,96,29.87,29.72,14,4,14,0.00
2013-12-21,32.7,29.5,27.5,31.7,28.4,26.3,97,96,95,29.89,29.61,15,4,15,0.00
2013-12-22,32.7,27.7,17.2,31.8,26.1,14.4,97,94,89,30.26,29.63,11,0,11,0.00
2013-12-23,18.2,9.2,2.8,15.4,5.0,-3.0,92,83,75,30.59,30.26,0,0,0,0.00
2013-12-24,20.2,8.1,-3.0,14.4,3.2,-7.5,89,80,75,30.67,30.38,16,2,16,0.00
2013-12-25,29.3,25.6,20.2,26.7,22.7,14.4,94,89,78,30.38,30.20,15,4,16,0.00
2013-12-26,36.8,28.4,16.1,32.1,25.0,13.7,93,87,77,30.34,30.19,14,2,15,0.00
2013-12-27,43.1,33.3,23.8,36.0,29.9,22.4,96,88,74,30.34,30.16,14,2,14,0.00
2013-12-28,38.8,35.6,32.2,34.0,32.1,29.7,91,87,81,30.16,30.11,12,3,12,0.00
2013-12-31,22.0,16.7,9.2,15.5,11.6,6.1,88,80,73,30.44,30.25,11,4,15,0.00
2014-1-1,23.1,19.0,12.4,19.9,15.9,9.8,100,88,84,30.26,30.17,21,6,21,0.00
2014-1-2,15.2,11.1,1.6,10.3,6.9,-2.1,92,83,78,30.51,30.20,21,6,21,0.00